createdAt,value
2022-10-22T00:01:04.476Z,6.13
2022-10-22T00:03:31.391Z,4.60
2022-10-22T00:05:58.107Z,4.65
2022-10-22T00:08:25.063Z,5.63
2022-10-22T00:10:52.771Z,4.22
2022-10-22T00:13:19.892Z,4.80
2022-10-22T00:15:46.584Z,4.97
2022-10-22T00:18:13.254Z,4.50
2022-10-22T00:20:39.959Z,5.27
2022-10-22T00:23:06.691Z,4.68
2022-10-22T00:25:35.803Z,5.32
2022-10-22T00:28:03.580Z,4.68
2022-10-22T00:30:30.305Z,4.90
2022-10-22T00:32:56.952Z,5.30
2022-10-22T00:35:23.704Z,5.05
2022-10-22T00:37:50.394Z,4.20
2022-10-22T00:40:17.160Z,5.18
2022-10-22T00:42:44.022Z,5.35
2022-10-22T00:45:10.726Z,4.93
2022-10-22T00:48:05.178Z,5.20
2022-10-22T00:50:38.299Z,4.72
2022-10-22T00:53:10.387Z,5.43
2022-10-22T00:55:37.836Z,4.10
2022-10-22T00:58:04.713Z,4.93
2022-10-22T01:00:31.699Z,4.07
2022-10-22T01:02:59.169Z,4.88
2022-10-22T01:05:33.049Z,4.68
2022-10-22T01:07:59.842Z,5.00
2022-10-22T01:11:03.745Z,4.90
2022-10-22T01:13:58.562Z,4.72
2022-10-22T01:16:40.152Z,4.07
2022-10-22T01:19:28.702Z,4.03
2022-10-22T01:22:27.529Z,4.80
2022-10-22T01:25:05.873Z,4.63
2022-10-22T01:28:00.944Z,4.38
2022-10-22T01:30:27.730Z,5.07
2022-10-22T01:33:03.213Z,4.03
2022-10-22T01:35:35.944Z,4.65
2022-10-22T01:38:07.500Z,4.60
2022-10-22T01:40:35.296Z,5.10
2022-10-22T01:43:07.350Z,3.92
2022-10-22T01:45:38.372Z,4.10
2022-10-22T01:48:33.154Z,4.20
2022-10-22T01:51:23.545Z,4.03
2022-10-22T01:54:04.856Z,4.13
2022-10-22T01:56:52.111Z,4.65
2022-10-22T01:59:24.492Z,5.40
2022-10-22T02:01:56.879Z,4.43
2022-10-22T02:04:40.355Z,4.53
2022-10-22T02:07:10.673Z,5.00
2022-10-22T02:09:39.352Z,4.22
2022-10-22T02:12:08.056Z,4.25
2022-10-22T02:14:38.986Z,4.38
2022-10-22T02:17:09.058Z,4.70
2022-10-22T02:19:46.405Z,4.20
2022-10-22T02:22:13.690Z,4.10
2022-10-22T02:24:40.513Z,4.72
2022-10-22T02:27:26.984Z,4.30
2022-10-22T02:30:06.390Z,4.30
2022-10-22T02:32:44.465Z,4.32
2022-10-22T02:35:15.702Z,4.03
2022-10-22T02:37:43.361Z,4.30
2022-10-22T02:40:10.791Z,4.05
2022-10-22T02:42:40.594Z,5.00
2022-10-22T02:45:07.902Z,5.20
2022-10-22T02:47:34.693Z,5.03
2022-10-22T02:50:01.837Z,4.55
2022-10-22T02:52:29.545Z,4.43
2022-10-22T02:54:56.205Z,4.73
2022-10-22T02:57:22.885Z,4.82
2022-10-22T02:59:49.654Z,4.47
2022-10-22T03:02:16.571Z,4.85
2022-10-22T03:04:43.343Z,4.38
2022-10-22T03:07:10.019Z,4.67
2022-10-22T03:09:36.661Z,4.13
2022-10-22T03:12:03.612Z,4.43
2022-10-22T03:14:30.241Z,4.90
2022-10-22T03:16:56.911Z,4.30
2022-10-22T03:19:23.566Z,4.20
2022-10-22T03:21:55.539Z,4.85
2022-10-22T03:24:44.186Z,4.20
2022-10-22T03:27:14.908Z,4.00
2022-10-22T03:29:42.607Z,4.40
2022-10-22T03:32:09.518Z,5.03
2022-10-22T03:34:36.169Z,4.82
2022-10-22T03:37:02.947Z,4.55
2022-10-22T03:39:31.903Z,4.18
2022-10-22T03:41:58.859Z,4.63
2022-10-22T03:44:26.172Z,3.93
2022-10-22T03:46:54.304Z,4.25
2022-10-22T03:49:23.072Z,5.07
2022-10-22T03:51:49.830Z,4.30
2022-10-22T03:54:17.073Z,4.43
2022-10-22T03:56:43.798Z,4.70
2022-10-22T03:59:10.509Z,3.58
2022-10-22T04:01:37.265Z,4.65
2022-10-22T04:04:04.113Z,4.05
2022-10-22T04:06:31.092Z,4.40
2022-10-22T04:08:59.027Z,3.97
2022-10-22T04:11:25.763Z,4.53
2022-10-22T04:13:52.421Z,4.72
2022-10-22T04:16:22.597Z,4.28
2022-10-22T04:18:50.668Z,3.97
2022-10-22T04:21:19.125Z,3.90
2022-10-22T04:23:47.885Z,4.18
2022-10-22T04:26:15.086Z,4.00
2022-10-22T04:28:42.750Z,4.97
2022-10-22T04:31:10.920Z,4.40
2022-10-22T04:33:38.080Z,4.03
2022-10-22T04:36:13.189Z,3.92
2022-10-22T04:38:41.432Z,4.18
2022-10-22T04:41:20.076Z,4.45
2022-10-22T04:43:47.364Z,4.10
2022-10-22T04:46:15.564Z,4.53
2022-10-22T04:48:43.550Z,3.70
2022-10-22T04:51:13.285Z,4.85
2022-10-22T04:53:43.073Z,4.97
2022-10-22T04:56:16.245Z,4.50
2022-10-22T04:58:44.022Z,4.40
2022-10-22T05:01:16.616Z,4.22
2022-10-22T05:03:44.623Z,4.60
2022-10-22T05:08:44.768Z,4.50
2022-10-22T05:11:23.306Z,4.67
2022-10-22T05:13:50.084Z,4.50
2022-10-22T05:16:16.895Z,4.57
2022-10-22T05:18:44.704Z,4.15
2022-10-22T05:21:14.326Z,5.13
2022-10-22T05:23:41.317Z,4.53
2022-10-22T05:26:09.957Z,4.60
2022-10-22T05:28:37.194Z,4.68
2022-10-22T05:31:05.939Z,4.63
2022-10-22T05:33:33.945Z,5.40
2022-10-22T05:36:02.063Z,4.03
2022-10-22T05:38:28.970Z,4.57
2022-10-22T05:41:13.671Z,4.00
2022-10-22T05:43:40.774Z,4.15
2022-10-22T05:46:13.457Z,4.20
2022-10-22T05:48:40.437Z,4.37
2022-10-22T05:51:10.477Z,5.47
2022-10-22T05:53:38.694Z,4.68
2022-10-22T05:56:11.890Z,4.90
2022-10-22T05:58:39.205Z,4.72
2022-10-22T06:01:09.116Z,4.90
2022-10-22T06:03:35.778Z,4.78
2022-10-22T06:06:09.919Z,5.18
2022-10-22T06:08:36.620Z,4.28
2022-10-22T06:11:03.317Z,4.75
2022-10-22T06:13:29.961Z,3.87
2022-10-22T06:15:56.677Z,4.32
2022-10-22T06:18:23.382Z,4.65
2022-10-22T06:20:50.066Z,3.80
2022-10-22T06:23:16.736Z,3.83
2022-10-22T06:25:43.565Z,4.40
2022-10-22T06:28:10.619Z,4.70
2022-10-22T06:30:41.708Z,3.88
2022-10-22T06:33:10.957Z,4.22
2022-10-22T06:35:37.585Z,3.95
2022-10-22T06:38:04.260Z,4.00
2022-10-22T06:40:30.905Z,3.88
2022-10-22T06:43:02.093Z,4.10
2022-10-22T06:45:29.044Z,3.90
2022-10-22T06:47:55.762Z,4.25
2022-10-22T06:50:22.621Z,3.80
2022-10-22T06:52:49.261Z,3.63
2022-10-22T06:55:16.068Z,3.97
2022-10-22T06:57:43.286Z,3.80
2022-10-22T07:00:10.650Z,4.00
2022-10-22T07:02:37.312Z,4.10
2022-10-22T07:05:04.151Z,4.20
2022-10-22T07:07:30.818Z,3.35
2022-10-22T07:09:57.538Z,3.60
2022-10-22T07:12:24.212Z,3.75
2022-10-22T07:14:50.880Z,3.77
2022-10-22T07:17:17.555Z,3.55
2022-10-22T07:19:47.104Z,4.10
2022-10-22T07:22:15.054Z,3.65
2022-10-22T07:24:41.787Z,3.33
2022-10-22T07:27:10.949Z,3.93
2022-10-22T07:29:38.446Z,3.67
2022-10-22T07:32:05.546Z,3.75
2022-10-22T07:34:32.283Z,3.60
2022-10-22T07:36:59.274Z,3.40
2022-10-22T07:39:26.038Z,4.10
2022-10-22T07:41:52.919Z,4.55
2022-10-22T07:44:19.617Z,2.72
2022-10-22T07:46:48.851Z,3.13
2022-10-22T07:49:15.829Z,2.90
2022-10-22T07:51:42.521Z,3.50
2022-10-22T07:54:09.209Z,3.08
2022-10-22T07:56:35.883Z,3.47
2022-10-22T08:01:34.210Z,3.55
2022-10-22T08:04:00.945Z,3.67
2022-10-22T08:06:27.627Z,3.20
2022-10-22T08:08:54.370Z,3.25
2022-10-22T08:11:21.099Z,2.53
2022-10-22T08:13:47.785Z,3.17
2022-10-22T08:16:15.015Z,3.50
2022-10-22T08:18:41.753Z,3.35
2022-10-22T08:21:08.581Z,2.80
2022-10-22T08:23:35.463Z,2.50
2022-10-22T08:26:02.988Z,2.50
2022-10-22T08:28:31.173Z,3.10
2022-10-22T08:30:57.907Z,2.97
2022-10-22T08:33:24.712Z,3.08
2022-10-22T08:35:52.317Z,2.50
2022-10-22T08:38:19.639Z,3.28
2022-10-22T08:40:53.092Z,2.63
2022-10-22T08:43:25.648Z,2.45
2022-10-22T08:46:07.297Z,2.75
2022-10-22T08:48:44.668Z,2.38
2022-10-22T08:51:17.844Z,2.97
2022-10-22T08:53:58.012Z,2.63
2022-10-22T08:56:24.721Z,2.42
2022-10-22T08:58:57.164Z,2.47
2022-10-22T09:01:36.715Z,2.00
2022-10-22T09:04:13.787Z,2.38
2022-10-22T09:06:44.217Z,2.87
2022-10-22T09:09:18.732Z,2.30
2022-10-22T09:11:48.698Z,2.60
2022-10-22T09:14:20.980Z,2.05
2022-10-22T09:17:19.154Z,2.35
2022-10-22T09:20:23.752Z,2.17
2022-10-22T09:23:09.872Z,2.30
2022-10-22T09:25:37.445Z,2.35
2022-10-22T09:28:04.261Z,2.33
2022-10-22T09:30:34.654Z,2.72
2022-10-22T09:33:12.293Z,3.00
2022-10-22T09:35:48.506Z,2.50
2022-10-22T09:38:18.744Z,2.47
2022-10-22T09:40:51.986Z,2.42
2022-10-22T09:43:19.445Z,2.40
2022-10-22T09:45:47.545Z,2.47
2022-10-22T09:48:31.224Z,2.20
2022-10-22T09:51:12.819Z,2.40
2022-10-22T09:53:43.998Z,2.75
2022-10-22T09:56:23.705Z,2.40
2022-10-22T09:58:51.193Z,2.60
2022-10-22T10:01:22.646Z,2.72
2022-10-22T10:03:50.145Z,2.63
2022-10-22T10:06:22.208Z,2.20
2022-10-22T10:08:49.181Z,2.20
2022-10-22T10:11:33.764Z,2.57
2022-10-22T10:14:34.722Z,2.47
2022-10-22T10:17:27.257Z,2.85
2022-10-22T10:20:02.928Z,3.08
2022-10-22T10:22:43.145Z,2.40
2022-10-22T10:25:34.334Z,2.40
2022-10-22T10:28:41.091Z,2.47
2022-10-22T10:31:17.481Z,2.03
2022-10-22T10:33:56.536Z,2.22
2022-10-22T10:36:40.437Z,2.28
2022-10-22T10:39:21.440Z,2.57
2022-10-22T10:42:06.788Z,2.55
2022-10-22T10:45:07.587Z,2.30
2022-10-22T10:48:01.322Z,2.45
2022-10-22T10:50:40.430Z,2.20
2022-10-22T10:53:24.532Z,2.50
2022-10-22T10:56:00.156Z,1.92
2022-10-22T10:58:47.417Z,2.17
2022-10-22T11:01:25.020Z,1.83
2022-10-22T11:04:03.613Z,1.95
2022-10-22T11:06:33.016Z,2.30
2022-10-22T11:09:06.972Z,1.98
2022-10-22T11:11:39.940Z,1.98
2022-10-22T11:14:15.772Z,2.00
2022-10-22T11:16:59.018Z,2.00
2022-10-22T11:19:50.654Z,2.70
2022-10-22T11:23:06.629Z,2.28
2022-10-22T11:25:35.896Z,2.17
2022-10-22T11:28:28.819Z,1.73
2022-10-22T11:31:12.608Z,1.60
2022-10-22T11:34:04.888Z,1.80
2022-10-22T11:36:43.142Z,2.05
2022-10-22T11:39:33.795Z,1.98
2022-10-22T11:42:05.265Z,1.52
2022-10-22T11:44:45.046Z,1.70
2022-10-22T11:47:26.113Z,2.03
2022-10-22T11:49:59.315Z,1.52
2022-10-22T11:52:46.212Z,2.17
2022-10-22T11:56:02.976Z,2.38
2022-10-22T11:58:30.440Z,1.83
2022-10-22T12:01:06.009Z,3.53
2022-10-22T12:03:32.626Z,2.03
2022-10-22T12:06:26.014Z,2.13
2022-10-22T12:08:59.301Z,2.30
2022-10-22T12:11:49.447Z,2.15
2022-10-22T12:14:40.597Z,1.97
2022-10-22T12:17:14.128Z,2.67
2022-10-22T12:20:23.374Z,2.63
2022-10-22T12:22:52.120Z,2.70
2022-10-22T12:25:23.630Z,1.90
2022-10-22T12:27:53.372Z,2.40
2022-10-22T12:30:23.558Z,2.92
2022-10-22T12:32:58.006Z,3.38
2022-10-22T12:35:28.010Z,3.45
2022-10-22T12:37:57.962Z,2.83
2022-10-22T12:40:27.164Z,2.60
2022-10-22T12:43:02.322Z,3.70
2022-10-22T12:45:31.186Z,2.55
2022-10-22T12:48:01.092Z,3.40
2022-10-22T12:50:43.664Z,2.25
2022-10-22T12:53:19.359Z,2.90
2022-10-22T12:55:49.630Z,2.28
2022-10-22T12:58:28.405Z,2.42
2022-10-22T13:00:58.417Z,2.63
2022-10-22T13:03:30.148Z,1.95
2022-10-22T13:05:56.788Z,2.80
2022-10-22T13:08:28.011Z,3.30
2022-10-22T13:10:55.330Z,2.50
2022-10-22T13:13:40.175Z,2.80
2022-10-22T13:16:21.309Z,2.42
2022-10-22T13:18:48.648Z,2.17
2022-10-22T13:21:41.306Z,2.97
2022-10-22T13:24:23.571Z,2.63
2022-10-22T13:26:53.225Z,2.17
2022-10-22T13:29:22.472Z,2.80
2022-10-22T13:31:51.346Z,2.40
2022-10-22T13:34:21.069Z,2.50
2022-10-22T13:36:48.575Z,2.35
2022-10-22T13:39:20.233Z,2.38
2022-10-22T13:41:47.870Z,2.80
2022-10-22T13:44:14.580Z,2.53
2022-10-22T13:46:43.145Z,2.80
2022-10-22T13:49:23.291Z,2.42
2022-10-22T13:51:51.257Z,2.20
2022-10-22T13:54:23.740Z,2.80
2022-10-22T13:56:50.431Z,3.13
2022-10-22T13:59:19.777Z,2.67
2022-10-22T14:01:49.843Z,2.55
2022-10-22T14:04:16.510Z,2.42
2022-10-22T14:06:43.324Z,2.55
2022-10-22T14:09:15.621Z,3.30
2022-10-22T14:11:43.042Z,2.78
2022-10-22T14:14:13.959Z,3.85
2022-10-22T14:16:40.932Z,4.03
2022-10-22T14:19:14.319Z,5.90
2022-10-22T14:21:40.993Z,3.37
2022-10-22T14:24:12.965Z,3.40
2022-10-22T14:26:40.388Z,3.40
2022-10-22T14:29:11.365Z,3.65
2022-10-22T14:31:44.489Z,3.10
2022-10-22T14:34:16.553Z,3.57
2022-10-22T14:36:44.275Z,2.63
2022-10-22T14:39:11.772Z,3.15
2022-10-22T14:41:38.608Z,3.63
2022-10-22T14:44:05.379Z,2.92
2022-10-22T14:46:32.153Z,3.57
2022-10-22T14:48:58.818Z,3.08
2022-10-22T14:51:26.039Z,5.75
2022-10-22T14:53:52.696Z,5.22
2022-10-22T14:56:22.869Z,4.40
2022-10-22T14:58:50.839Z,4.30
2022-10-22T15:01:17.593Z,2.60
2022-10-22T15:03:44.338Z,4.00
2022-10-22T15:06:11.281Z,3.22
2022-10-22T15:08:37.952Z,3.50
2022-10-22T15:11:07.561Z,2.60
2022-10-22T15:13:34.998Z,3.63
2022-10-22T15:16:01.980Z,2.88
2022-10-22T15:18:28.804Z,3.00
2022-10-22T15:20:57.517Z,3.45
2022-10-22T15:23:24.293Z,3.40
2022-10-22T15:25:51.210Z,4.43
2022-10-22T15:28:17.929Z,3.05
2022-10-22T15:30:44.624Z,2.85
2022-10-22T15:33:11.360Z,3.90
2022-10-22T15:35:38.004Z,2.83
2022-10-22T15:38:09.103Z,2.40
2022-10-22T15:40:35.832Z,2.83
2022-10-22T15:43:02.538Z,2.42
2022-10-22T15:45:29.177Z,2.45
2022-10-22T15:47:56.122Z,2.87
2022-10-22T15:50:22.828Z,2.55
2022-10-22T15:52:49.526Z,2.58
2022-10-22T15:55:16.455Z,2.35
2022-10-22T15:57:43.347Z,2.97
2022-10-22T16:00:11.102Z,2.57
2022-10-22T16:02:41.778Z,2.60
2022-10-22T16:05:08.877Z,2.10
2022-10-22T16:07:35.589Z,2.22
2022-10-22T16:10:02.292Z,2.65
2022-10-22T16:12:29.288Z,2.00
2022-10-22T16:14:56.201Z,2.72
2022-10-22T16:17:23.432Z,2.55
2022-10-22T16:19:50.100Z,2.50
2022-10-22T16:22:16.818Z,3.42
2022-10-22T16:24:43.525Z,3.43
2022-10-22T16:27:10.721Z,2.00
2022-10-22T16:29:38.984Z,2.50
2022-10-22T16:32:05.947Z,2.80
2022-10-22T16:34:32.619Z,3.17
2022-10-22T16:36:59.333Z,3.70
2022-10-22T16:39:25.980Z,3.22
2022-10-22T16:41:52.690Z,3.88
2022-10-22T16:44:19.577Z,2.70
2022-10-22T16:46:46.230Z,3.95
2022-10-22T16:49:13.256Z,3.77
2022-10-22T16:51:40.086Z,2.63
2022-10-22T16:54:09.724Z,3.22
2022-10-22T16:56:38.920Z,3.17
2022-10-22T16:59:06.455Z,3.25
2022-10-22T17:01:36.750Z,3.23
2022-10-22T17:04:06.381Z,4.05
2022-10-22T17:06:33.047Z,3.10
2022-10-22T17:08:59.841Z,3.05
2022-10-22T17:11:29.743Z,3.60
2022-10-22T17:13:56.418Z,3.77
2022-10-22T17:16:24.610Z,3.00
2022-10-22T17:18:53.143Z,4.20
2022-10-22T17:21:20.772Z,4.15
2022-10-22T17:23:48.365Z,5.13
2022-10-22T17:26:18.288Z,5.67
2022-10-22T17:28:45.375Z,6.07
2022-10-22T17:31:18.362Z,5.20
2022-10-22T17:33:45.632Z,4.82
2022-10-22T17:36:13.640Z,5.57
2022-10-22T17:38:41.827Z,5.13
2022-10-22T17:41:13.789Z,4.63
2022-10-22T17:43:41.520Z,4.82
2022-10-22T17:46:13.226Z,4.45
2022-10-22T17:48:40.071Z,4.38
2022-10-22T17:51:11.389Z,4.47
2022-10-22T17:53:42.873Z,3.85
2022-10-22T17:56:10.330Z,3.63
2022-10-22T17:58:37.658Z,4.50
2022-10-22T18:01:05.055Z,5.15
2022-10-22T18:03:32.986Z,4.10
2022-10-22T18:06:07.540Z,4.50
2022-10-22T18:08:34.520Z,5.25
2022-10-22T18:11:05.105Z,5.28
2022-10-22T18:13:32.922Z,4.80
2022-10-22T18:15:59.674Z,5.00
2022-10-22T18:18:26.414Z,4.93
2022-10-22T18:20:53.848Z,4.90
2022-10-22T18:23:20.700Z,4.63
2022-10-22T18:25:48.589Z,4.78
2022-10-22T18:28:17.675Z,4.30
2022-10-22T18:30:45.425Z,4.68
2022-10-22T18:33:17.660Z,4.25
2022-10-22T18:35:46.392Z,4.25
2022-10-22T18:38:13.461Z,4.50
2022-10-22T18:40:46.805Z,4.57
2022-10-22T18:43:13.842Z,4.38
2022-10-22T18:45:48.315Z,4.85
2022-10-22T18:48:17.536Z,5.82
2022-10-22T18:50:45.339Z,3.97
2022-10-22T18:53:14.057Z,4.30
2022-10-22T18:55:41.045Z,4.05
2022-10-22T18:58:07.960Z,4.13
2022-10-22T19:00:35.908Z,4.10
2022-10-22T19:03:03.262Z,3.75
2022-10-22T19:05:30.507Z,5.33
2022-10-22T19:07:57.218Z,4.10
2022-10-22T19:10:24.201Z,5.22
2022-10-22T19:12:50.926Z,4.63
2022-10-22T19:15:17.761Z,4.70
2022-10-22T19:17:44.731Z,4.70
2022-10-22T19:20:11.678Z,4.30
2022-10-22T19:22:38.321Z,5.20
2022-10-22T19:25:07.112Z,4.60
2022-10-22T19:27:36.465Z,5.57
2022-10-22T19:30:06.661Z,5.30
2022-10-22T19:32:33.332Z,4.63
2022-10-22T19:35:00.129Z,5.15
2022-10-22T19:37:27.082Z,5.90
2022-10-22T19:39:53.765Z,5.32
2022-10-22T19:42:20.800Z,5.47
2022-10-22T19:44:47.563Z,5.28
2022-10-22T19:47:15.954Z,5.55
2022-10-22T19:49:42.587Z,5.55
2022-10-22T19:52:09.272Z,5.40
2022-10-22T19:54:40.634Z,5.37
2022-10-22T19:57:08.449Z,5.07
2022-10-22T19:59:35.198Z,4.60
2022-10-22T20:02:01.978Z,6.88
2022-10-22T20:04:29.156Z,5.75
2022-10-22T20:06:55.839Z,6.27
2022-10-22T20:09:23.020Z,5.43
2022-10-22T20:11:49.931Z,5.13
2022-10-22T20:14:16.626Z,5.85
2022-10-22T20:16:43.696Z,5.20
2022-10-22T20:19:13.366Z,5.30
2022-10-22T20:21:40.540Z,5.53
2022-10-22T20:24:07.357Z,5.15
2022-10-22T20:26:34.626Z,5.47
2022-10-22T20:29:01.422Z,5.85
2022-10-22T20:31:29.529Z,5.57
2022-10-22T20:34:01.356Z,5.90
2022-10-22T20:36:29.417Z,5.10
2022-10-22T20:39:06.160Z,5.32
2022-10-22T20:41:34.019Z,5.72
2022-10-22T20:44:01.007Z,6.53
2022-10-22T20:46:30.760Z,6.03
2022-10-22T20:49:05.837Z,5.95
2022-10-22T20:51:32.907Z,6.28
2022-10-22T20:53:59.684Z,6.28
2022-10-22T20:56:27.212Z,6.33
2022-10-22T20:59:04.072Z,6.57
2022-10-22T21:01:36.773Z,5.47
2022-10-22T21:04:04.104Z,6.15
2022-10-22T21:06:30.869Z,6.25
2022-10-22T21:08:57.780Z,5.80
2022-10-22T21:11:24.528Z,6.40
2022-10-22T21:13:51.299Z,6.10
2022-10-22T21:16:18.990Z,6.45
2022-10-22T21:18:47.052Z,5.93
2022-10-22T21:21:13.979Z,5.80
2022-10-22T21:23:40.719Z,6.13
2022-10-22T21:26:07.879Z,6.28
2022-10-22T21:28:36.396Z,6.22
2022-10-22T21:31:04.551Z,6.30
2022-10-22T21:33:31.834Z,5.97
2022-10-22T21:35:58.487Z,6.90
2022-10-22T21:38:26.020Z,7.00
2022-10-22T21:40:52.799Z,6.90
2022-10-22T21:43:19.790Z,5.75
2022-10-22T21:45:46.517Z,6.43
2022-10-22T21:48:14.272Z,7.20
2022-10-22T21:50:42.304Z,6.60
2022-10-22T21:53:10.560Z,7.35
2022-10-22T21:55:38.995Z,6.28
2022-10-22T21:58:06.397Z,6.37
2022-10-22T22:00:33.617Z,6.07
2022-10-22T22:03:00.462Z,7.07
2022-10-22T22:05:28.277Z,6.22
2022-10-22T22:07:55.048Z,6.72
2022-10-22T22:10:21.722Z,7.03
2022-10-22T22:12:50.493Z,7.20
2022-10-22T22:15:17.209Z,7.10
2022-10-22T22:17:43.848Z,7.45
2022-10-22T22:20:11.071Z,6.82
2022-10-22T22:22:37.712Z,7.13
2022-10-22T22:25:04.620Z,6.72
2022-10-22T22:27:31.269Z,6.90
2022-10-22T22:29:57.945Z,6.75
2022-10-22T22:32:24.636Z,6.68
2022-10-22T22:34:51.305Z,6.47
2022-10-22T22:37:17.977Z,7.57
2022-10-22T22:39:44.610Z,7.25
2022-10-22T22:42:11.259Z,6.80
2022-10-22T22:44:39.015Z,7.38
2022-10-22T22:47:05.693Z,6.70
2022-10-22T22:49:32.338Z,6.47
2022-10-22T22:51:59.000Z,7.03
2022-10-22T22:54:25.741Z,8.43
2022-10-22T22:56:52.407Z,7.82
2022-10-22T22:59:19.041Z,7.70
2022-10-22T23:01:49.168Z,7.88
2022-10-22T23:04:25.200Z,6.45
2022-10-22T23:06:52.611Z,6.25
2022-10-22T23:11:52.529Z,7.53
2022-10-22T23:14:20.312Z,7.25
2022-10-22T23:16:49.670Z,6.88
2022-10-22T23:19:19.443Z,7.15
2022-10-22T23:21:49.251Z,8.05
2022-10-22T23:24:19.227Z,7.70
2022-10-22T23:26:48.297Z,7.50
2022-10-22T23:29:20.571Z,8.25
2022-10-22T23:31:48.493Z,8.27
2022-10-22T23:34:20.890Z,7.85
2022-10-22T23:36:48.141Z,8.60
2022-10-22T23:39:18.775Z,7.90
2022-10-22T23:41:45.695Z,8.65
2022-10-22T23:44:12.833Z,8.18
2022-10-22T23:46:40.178Z,9.30
2022-10-22T23:49:08.544Z,9.47
2022-10-22T23:51:35.397Z,9.32
2022-10-22T23:54:07.989Z,9.30
2022-10-22T23:56:35.972Z,9.48
2022-10-22T23:59:03.600Z,8.55
